sensor_id;sensor_type;location;lat;lon;timestamp;temperature;humidity
21318;DHT22;10818;50.830;6.524;2023-04-01T00:02:40;10.40;99.90
21318;DHT22;10818;50.830;6.524;2023-04-01T00:07:41;10.40;99.90
21318;DHT22;10818;50.830;6.524;2023-04-01T00:12:43;10.30;99.90
21318;DHT22;10818;50.830;6.524;2023-04-01T00:17:43;10.30;99.90
21318;DHT22;10818;50.830;6.524;2023-04-01T00:22:45;10.40;99.90
21318;DHT22;10818;50.830;6.524;2023-04-01T00:27:45;10.30;99.90
21318;DHT22;10818;50.830;6.524;2023-04-01T00:32:46;10.40;99.90
21318;DHT22;10818;50.830;6.524;2023-04-01T00:37:46;10.40;99.90
21318;DHT22;10818;50.830;6.524;2023-04-01T00:42:47;10.50;99.90
21318;DHT22;10818;50.830;6.524;2023-04-01T00:47:48;10.40;99.90
21318;DHT22;10818;50.830;6.524;2023-04-01T00:52:48;10.40;99.90
21318;DHT22;10818;50.830;6.524;2023-04-01T00:57:49;10.50;99.90
21318;DHT22;10818;50.830;6.524;2023-04-01T01:02:50;10.40;99.90
21318;DHT22;10818;50.830;6.524;2023-04-01T01:18:26;10.40;99.90
21318;DHT22;10818;50.830;6.524;2023-04-01T01:29:05;10.30;99.90
21318;DHT22;10818;50.830;6.524;2023-04-01T01:34:25;10.30;99.90
21318;DHT22;10818;50.830;6.524;2023-04-01T01:39:30;10.30;99.90
21318;DHT22;10818;50.830;6.524;2023-04-01T01:44:31;10.30;99.90
21318;DHT22;10818;50.830;6.524;2023-04-01T01:49:33;10.30;99.90
21318;DHT22;10818;50.830;6.524;2023-04-01T01:54:34;10.30;99.90
21318;DHT22;10818;50.830;6.524;2023-04-01T01:59:35;10.20;99.90
21318;DHT22;10818;50.830;6.524;2023-04-01T02:04:38;10.20;99.90
21318;DHT22;10818;50.830;6.524;2023-04-01T02:09:40;10.10;99.90
21318;DHT22;10818;50.830;6.524;2023-04-01T02:14:52;10.10;99.90
21318;DHT22;10818;50.830;6.524;2023-04-01T02:19:54;10.00;99.90
21318;DHT22;10818;50.830;6.524;2023-04-01T02:25:00;10.00;99.90
21318;DHT22;10818;50.830;6.524;2023-04-01T02:30:02;9.90;99.90
21318;DHT22;10818;50.830;6.524;2023-04-01T02:35:05;9.90;99.90
21318;DHT22;10818;50.830;6.524;2023-04-01T02:40:06;9.90;99.90
21318;DHT22;10818;50.830;6.524;2023-04-01T02:45:08;10.00;99.90
21318;DHT22;10818;50.830;6.524;2023-04-01T02:50:09;10.00;99.90
21318;DHT22;10818;50.830;6.524;2023-04-01T02:55:10;10.10;99.90
21318;DHT22;10818;50.830;6.524;2023-04-01T03:00:10;9.90;99.90
21318;DHT22;10818;50.830;6.524;2023-04-01T03:05:11;10.00;99.90
21318;DHT22;10818;50.830;6.524;2023-04-01T03:10:12;10.00;99.90
21318;DHT22;10818;50.830;6.524;2023-04-01T03:15:13;10.00;99.90
21318;DHT22;10818;50.830;6.524;2023-04-01T03:20:15;10.00;99.90
21318;DHT22;10818;50.830;6.524;2023-04-01T03:25:15;10.00;99.90
21318;DHT22;10818;50.830;6.524;2023-04-01T03:30:16;10.10;99.90
21318;DHT22;10818;50.830;6.524;2023-04-01T03:35:16;10.00;99.90
21318;DHT22;10818;50.830;6.524;2023-04-01T03:40:17;10.00;99.90
21318;DHT22;10818;50.830;6.524;2023-04-01T03:45:17;9.90;99.90
21318;DHT22;10818;50.830;6.524;2023-04-01T03:50:18;9.90;99.90
21318;DHT22;10818;50.830;6.524;2023-04-01T03:55:19;9.90;99.90
21318;DHT22;10818;50.830;6.524;2023-04-01T04:00:20;10.00;99.90
21318;DHT22;10818;50.830;6.524;2023-04-01T04:05:20;10.00;99.90
21318;DHT22;10818;50.830;6.524;2023-04-01T04:10:21;10.10;99.90
21318;DHT22;10818;50.830;6.524;2023-04-01T04:15:23;10.20;99.90
21318;DHT22;10818;50.830;6.524;2023-04-01T04:20:24;10.20;99.90
21318;DHT22;10818;50.830;6.524;2023-04-01T04:25:25;10.10;99.90
21318;DHT22;10818;50.830;6.524;2023-04-01T04:30:25;10.10;99.90
21318;DHT22;10818;50.830;6.524;2023-04-01T04:35:25;10.00;99.90
21318;DHT22;10818;50.830;6.524;2023-04-01T04:40:26;10.10;99.90
21318;DHT22;10818;50.830;6.524;2023-04-01T04:45:26;10.00;99.90
21318;DHT22;10818;50.830;6.524;2023-04-01T04:50:27;10.10;99.90
21318;DHT22;10818;50.830;6.524;2023-04-01T04:55:27;10.10;99.90
21318;DHT22;10818;50.830;6.524;2023-04-01T05:00:28;10.00;99.90
21318;DHT22;10818;50.830;6.524;2023-04-01T05:05:28;10.00;99.90
21318;DHT22;10818;50.830;6.524;2023-04-01T05:10:29;10.00;99.90
21318;DHT22;10818;50.830;6.524;2023-04-01T05:15:30;10.10;99.90
21318;DHT22;10818;50.830;6.524;2023-04-01T05:20:31;10.00;99.90
21318;DHT22;10818;50.830;6.524;2023-04-01T05:25:31;10.10;99.90
21318;DHT22;10818;50.830;6.524;2023-04-01T05:30:31;10.10;99.90
21318;DHT22;10818;50.830;6.524;2023-04-01T05:35:32;10.10;99.90
21318;DHT22;10818;50.830;6.524;2023-04-01T05:40:32;10.20;99.90
21318;DHT22;10818;50.830;6.524;2023-04-01T05:45:33;10.20;99.90
21318;DHT22;10818;50.830;6.524;2023-04-01T05:50:34;10.20;99.90
21318;DHT22;10818;50.830;6.524;2023-04-01T05:55:35;10.20;99.90
21318;DHT22;10818;50.830;6.524;2023-04-01T06:00:35;10.10;99.90
21318;DHT22;10818;50.830;6.524;2023-04-01T06:05:38;10.10;99.90
21318;DHT22;10818;50.830;6.524;2023-04-01T06:15:51;10.20;99.90
21318;DHT22;10818;50.830;6.524;2023-04-01T06:21:15;10.30;99.90
21318;DHT22;10818;50.830;6.524;2023-04-01T06:36:53;10.90;99.90
21318;DHT22;10818;50.830;6.524;2023-04-01T06:42:10;11.00;99.90
21318;DHT22;10818;50.830;6.524;2023-04-01T06:57:36;11.40;99.90
21318;DHT22;10818;50.830;6.524;2023-04-01T07:02:41;11.20;99.90
21318;DHT22;10818;50.830;6.524;2023-04-01T07:07:43;11.00;99.90
21318;DHT22;10818;50.830;6.524;2023-04-01T07:12:52;10.90;99.90
21318;DHT22;10818;50.830;6.524;2023-04-01T07:17:58;10.90;99.90
21318;DHT22;10818;50.830;6.524;2023-04-01T07:23:08;10.90;99.90
21318;DHT22;10818;50.830;6.524;2023-04-01T07:28:12;10.90;99.90
21318;DHT22;10818;50.830;6.524;2023-04-01T07:33:28;11.00;99.90
21318;DHT22;10818;50.830;6.524;2023-04-01T07:38:54;11.10;99.90
21318;DHT22;10818;50.830;6.524;2023-04-01T07:49:22;11.20;99.90
21318;DHT22;10818;50.830;6.524;2023-04-01T07:54:29;11.20;99.90
21318;DHT22;10818;50.830;6.524;2023-04-01T07:59:39;11.20;99.90
21318;DHT22;10818;50.830;6.524;2023-04-01T08:24:57;11.10;99.90
21318;DHT22;10818;50.830;6.524;2023-04-01T08:35:12;11.50;99.90
21318;DHT22;10818;50.830;6.524;2023-04-01T08:55:44;11.50;99.90
21318;DHT22;10818;50.830;6.524;2023-04-01T09:00:47;11.60;99.90
21318;DHT22;10818;50.830;6.524;2023-04-01T09:16:17;12.20;99.90
21318;DHT22;10818;50.830;6.524;2023-04-01T09:21:32;12.10;99.90
21318;DHT22;10818;50.830;6.524;2023-04-01T09:36:43;12.00;99.90
21318;DHT22;10818;50.830;6.524;2023-04-01T09:42:06;12.00;99.90
21318;DHT22;10818;50.830;6.524;2023-04-01T09:47:15;12.10;99.90
21318;DHT22;10818;50.830;6.524;2023-04-01T09:52:31;12.30;99.90
21318;DHT22;10818;50.830;6.524;2023-04-01T09:57:54;12.30;99.90
21318;DHT22;10818;50.830;6.524;2023-04-01T10:18:50;12.20;99.90
21318;DHT22;10818;50.830;6.524;2023-04-01T10:23:57;12.40;99.90
21318;DHT22;10818;50.830;6.524;2023-04-01T10:49:31;12.80;99.90
21318;DHT22;10818;50.830;6.524;2023-04-01T10:54:42;12.80;99.90
21318;DHT22;10818;50.830;6.524;2023-04-01T10:59:55;12.90;99.90
21318;DHT22;10818;50.830;6.524;2023-04-01T11:15:09;13.00;99.90
21318;DHT22;10818;50.830;6.524;2023-04-01T11:30:53;14.10;99.90
21318;DHT22;10818;50.830;6.524;2023-04-01T11:46:33;13.40;99.90
21318;DHT22;10818;50.830;6.524;2023-04-01T11:56:59;13.60;99.90
21318;DHT22;10818;50.830;6.524;2023-04-01T12:02:08;13.80;99.90
21318;DHT22;10818;50.830;6.524;2023-04-01T12:12:42;13.60;99.90
21318;DHT22;10818;50.830;6.524;2023-04-01T12:17:50;13.40;99.90
21318;DHT22;10818;50.830;6.524;2023-04-01T12:28:08;13.20;99.90
21318;DHT22;10818;50.830;6.524;2023-04-01T12:43:42;13.80;99.90
21318;DHT22;10818;50.830;6.524;2023-04-01T12:48:58;14.00;99.90
21318;DHT22;10818;50.830;6.524;2023-04-01T13:05:01;14.40;99.90
21318;DHT22;10818;50.830;6.524;2023-04-01T13:10:13;14.30;99.90
21318;DHT22;10818;50.830;6.524;2023-04-01T13:20:34;13.90;99.90
21318;DHT22;10818;50.830;6.524;2023-04-01T13:25:44;13.80;99.90
21318;DHT22;10818;50.830;6.524;2023-04-01T13:36:13;13.70;99.90
21318;DHT22;10818;50.830;6.524;2023-04-01T13:41:25;14.00;99.90
21318;DHT22;10818;50.830;6.524;2023-04-01T14:07:32;13.40;99.90
21318;DHT22;10818;50.830;6.524;2023-04-01T14:12:40;13.40;99.90
21318;DHT22;10818;50.830;6.524;2023-04-01T14:17:47;13.50;99.90
21318;DHT22;10818;50.830;6.524;2023-04-01T14:28:03;14.10;99.90
21318;DHT22;10818;50.830;6.524;2023-04-01T14:54:11;13.40;99.90
21318;DHT22;10818;50.830;6.524;2023-04-01T14:59:34;13.20;99.90
21318;DHT22;10818;50.830;6.524;2023-04-01T15:09:54;13.30;99.90
21318;DHT22;10818;50.830;6.524;2023-04-01T15:20:01;13.40;99.90
21318;DHT22;10818;50.830;6.524;2023-04-01T15:30:28;13.10;99.90
21318;DHT22;10818;50.830;6.524;2023-04-01T15:35:39;12.80;99.90
21318;DHT22;10818;50.830;6.524;2023-04-01T15:40:54;12.90;99.90
21318;DHT22;10818;50.830;6.524;2023-04-01T15:51:24;12.80;99.90
21318;DHT22;10818;50.830;6.524;2023-04-01T15:56:36;12.70;99.90
21318;DHT22;10818;50.830;6.524;2023-04-01T16:01:55;12.70;99.90
21318;DHT22;10818;50.830;6.524;2023-04-01T16:07:02;12.60;99.90
21318;DHT22;10818;50.830;6.524;2023-04-01T16:12:10;12.40;99.90
21318;DHT22;10818;50.830;6.524;2023-04-01T16:22:40;11.90;99.90
21318;DHT22;10818;50.830;6.524;2023-04-01T16:27:54;12.00;99.90
21318;DHT22;10818;50.830;6.524;2023-04-01T16:38:15;12.00;99.90
21318;DHT22;10818;50.830;6.524;2023-04-01T16:43:20;11.90;99.90
21318;DHT22;10818;50.830;6.524;2023-04-01T16:48:44;11.70;99.90
21318;DHT22;10818;50.830;6.524;2023-04-01T16:53:48;11.70;99.90
21318;DHT22;10818;50.830;6.524;2023-04-01T16:58:59;11.60;99.90
21318;DHT22;10818;50.830;6.524;2023-04-01T17:04:07;11.60;99.90
21318;DHT22;10818;50.830;6.524;2023-04-01T17:14:25;11.50;99.90
21318;DHT22;10818;50.830;6.524;2023-04-01T17:40:14;11.00;99.90
21318;DHT22;10818;50.830;6.524;2023-04-01T17:45:21;10.90;99.90
21318;DHT22;10818;50.830;6.524;2023-04-01T17:50:24;10.90;99.90
21318;DHT22;10818;50.830;6.524;2023-04-01T18:00:33;10.70;99.90
21318;DHT22;10818;50.830;6.524;2023-04-01T18:21:30;10.50;99.90
21318;DHT22;10818;50.830;6.524;2023-04-01T18:26:35;10.50;99.90
21318;DHT22;10818;50.830;6.524;2023-04-01T18:31:38;10.40;99.90
21318;DHT22;10818;50.830;6.524;2023-04-01T18:36:56;10.30;99.90
21318;DHT22;10818;50.830;6.524;2023-04-01T18:42:00;10.40;99.90
21318;DHT22;10818;50.830;6.524;2023-04-01T18:47:20;10.30;99.90
21318;DHT22;10818;50.830;6.524;2023-04-01T18:52:26;10.30;99.90
21318;DHT22;10818;50.830;6.524;2023-04-01T19:02:42;10.30;99.90
21318;DHT22;10818;50.830;6.524;2023-04-01T19:07:46;10.30;99.90
21318;DHT22;10818;50.830;6.524;2023-04-01T19:38:31;10.30;99.90
21318;DHT22;10818;50.830;6.524;2023-04-01T19:54:18;10.20;99.90
21318;DHT22;10818;50.830;6.524;2023-04-01T20:04:35;10.30;99.90
21318;DHT22;10818;50.830;6.524;2023-04-01T20:09:44;10.20;99.90
21318;DHT22;10818;50.830;6.524;2023-04-01T20:14:47;10.20;99.90
21318;DHT22;10818;50.830;6.524;2023-04-01T20:20:03;10.10;99.90
21318;DHT22;10818;50.830;6.524;2023-04-01T20:25:25;10.20;99.90
21318;DHT22;10818;50.830;6.524;2023-04-01T20:35:34;10.20;99.90
21318;DHT22;10818;50.830;6.524;2023-04-01T20:40:51;10.20;99.90
21318;DHT22;10818;50.830;6.524;2023-04-01T21:01:15;10.00;99.90
21318;DHT22;10818;50.830;6.524;2023-04-01T21:22:06;10.00;99.90
21318;DHT22;10818;50.830;6.524;2023-04-01T21:27:21;10.00;99.90
21318;DHT22;10818;50.830;6.524;2023-04-01T21:32:40;10.00;99.90
21318;DHT22;10818;50.830;6.524;2023-04-01T21:37:52;10.10;99.90
21318;DHT22;10818;50.830;6.524;2023-04-01T21:48:30;10.10;99.90
21318;DHT22;10818;50.830;6.524;2023-04-01T21:53:55;10.10;99.90
21318;DHT22;10818;50.830;6.524;2023-04-01T21:59:09;10.10;99.90
21318;DHT22;10818;50.830;6.524;2023-04-01T22:04:19;10.10;99.90
21318;DHT22;10818;50.830;6.524;2023-04-01T22:15:10;10.20;99.90
21318;DHT22;10818;50.830;6.524;2023-04-01T22:25:14;10.30;99.90
21318;DHT22;10818;50.830;6.524;2023-04-01T22:35:25;10.10;99.90
21318;DHT22;10818;50.830;6.524;2023-04-01T22:50:40;9.70;99.90
21318;DHT22;10818;50.830;6.524;2023-04-01T22:55:41;9.80;99.90
21318;DHT22;10818;50.830;6.524;2023-04-01T23:00:48;9.70;99.90
21318;DHT22;10818;50.830;6.524;2023-04-01T23:05:51;9.70;99.90
21318;DHT22;10818;50.830;6.524;2023-04-01T23:10:58;9.70;99.90
21318;DHT22;10818;50.830;6.524;2023-04-01T23:16:00;9.50;99.90
21318;DHT22;10818;50.830;6.524;2023-04-01T23:26:39;9.30;99.90
21318;DHT22;10818;50.830;6.524;2023-04-01T23:31:45;9.20;99.90
21318;DHT22;10818;50.830;6.524;2023-04-01T23:36:47;9.00;99.90
21318;DHT22;10818;50.830;6.524;2023-04-01T23:41:50;9.00;99.90
21318;DHT22;10818;50.830;6.524;2023-04-01T23:46:51;9.00;99.90
21318;DHT22;10818;50.830;6.524;2023-04-01T23:51:54;8.80;99.90
21318;DHT22;10818;50.830;6.524;2023-04-01T23:56:56;8.60;99.90
